createdAt,value
2019-05-17T00:05:37.590Z,22.08
2019-05-17T00:15:41.686Z,21.33
2019-05-17T00:25:47.010Z,20.92
2019-05-17T00:35:50.726Z,20.59
2019-05-17T00:45:54.321Z,20.49
2019-05-17T00:55:57.897Z,20.37
2019-05-17T01:06:01.471Z,20.53
2019-05-17T01:16:07.316Z,23.98
2019-05-17T01:26:10.528Z,27.50
2019-05-17T01:36:14.089Z,26.66
2019-05-17T01:46:17.645Z,25.64
2019-05-17T01:56:21.246Z,24.93
2019-05-17T02:06:26.984Z,24.16
2019-05-17T02:16:30.143Z,23.25
2019-05-17T02:26:33.736Z,21.68
2019-05-17T02:36:37.336Z,21.01
2019-05-17T02:46:43.319Z,20.61
2019-05-17T02:56:46.239Z,20.27
2019-05-17T03:06:52.982Z,20.16
2019-05-17T03:16:55.125Z,20.02
2019-05-17T03:26:58.776Z,21.46
2019-05-17T03:37:06.527Z,25.85
2019-05-17T03:47:07.719Z,26.76
2019-05-17T03:57:13.421Z,24.98
2019-05-17T04:07:16.599Z,24.98
2019-05-17T04:17:22.714Z,24.12
2019-05-17T04:27:25.660Z,24.09
2019-05-17T04:37:29.255Z,23.60
2019-05-17T04:47:33.333Z,22.92
2019-05-17T04:57:37.205Z,23.18
2019-05-17T05:07:43.210Z,23.05
2019-05-17T05:17:46.099Z,22.89
2019-05-17T05:27:51.631Z,22.66
2019-05-17T05:37:54.999Z,22.44
2019-05-17T05:47:58.633Z,22.18
2019-05-17T05:58:02.961Z,25.62
2019-05-17T06:08:06.810Z,27.38
2019-05-17T06:18:12.177Z,26.87
2019-05-17T06:28:15.684Z,26.48
2019-05-17T06:38:19.523Z,25.83
2019-05-17T06:48:23.603Z,25.14
2019-05-17T06:58:27.276Z,24.56
2019-05-17T07:08:30.866Z,24.18
2019-05-17T07:18:34.489Z,23.77
2019-05-17T07:28:40.255Z,23.51
2019-05-17T07:38:43.413Z,23.24
2019-05-17T07:48:49.618Z,22.92
2019-05-17T07:58:52.503Z,22.68
2019-05-17T08:08:56.096Z,22.65
2019-05-17T08:19:00.309Z,22.48
2019-05-17T08:29:04.693Z,22.46
2019-05-17T08:39:10.248Z,22.47
2019-05-17T08:49:13.644Z,22.36
2019-05-17T08:59:17.259Z,22.39
2019-05-17T09:09:20.845Z,22.85
2019-05-17T09:19:24.443Z,24.57
2019-05-17T09:29:29.685Z,27.79
2019-05-17T09:39:35.268Z,27.68
2019-05-17T09:49:39.491Z,27.01
2019-05-17T09:59:43.472Z,26.37
2019-05-17T10:09:47.180Z,25.63
2019-05-17T10:19:50.785Z,24.99
2019-05-17T10:29:54.357Z,24.51
2019-05-17T10:39:57.948Z,24.19
2019-05-17T10:50:01.538Z,23.71
2019-05-17T11:00:06.691Z,23.65
2019-05-17T11:10:11.519Z,23.49
2019-05-17T11:20:15.627Z,23.35
2019-05-17T11:30:19.202Z,23.22
2019-05-17T11:40:22.805Z,23.06
2019-05-17T11:50:26.364Z,22.92
2019-05-17T12:00:30.019Z,22.75
2019-05-17T12:10:33.720Z,22.61
2019-05-17T12:20:38.215Z,22.58
2019-05-17T12:30:41.880Z,22.50
2019-05-17T12:40:45.535Z,22.46
2019-05-17T12:50:49.111Z,22.36
2019-05-17T13:00:52.690Z,22.30
2019-05-17T13:10:57.784Z,22.25
2019-05-17T13:21:02.032Z,22.27
2019-05-17T13:31:06.172Z,22.25
2019-05-17T13:41:09.704Z,22.18
2019-05-17T13:51:13.247Z,22.16
2019-05-17T14:01:16.825Z,22.15
2019-05-17T14:11:20.596Z,22.24
2019-05-17T14:21:24.198Z,22.58
2019-05-17T14:31:27.796Z,24.73
2019-05-17T14:41:31.360Z,24.54
2019-05-17T14:51:34.901Z,23.77
2019-05-17T15:01:38.441Z,23.61
2019-05-17T15:11:42.038Z,23.48
2019-05-17T15:21:45.639Z,23.41
2019-05-17T15:31:51.975Z,23.27
2019-05-17T15:41:54.656Z,23.14
2019-05-17T15:51:58.223Z,23.01
2019-05-17T16:02:01.883Z,22.92
2019-05-17T16:12:05.450Z,22.75
2019-05-17T16:22:09.019Z,22.64
2019-05-17T16:32:12.842Z,22.59
2019-05-17T16:42:16.524Z,22.56
2019-05-17T16:52:20.091Z,22.51
2019-05-17T17:02:23.631Z,22.44
2019-05-17T17:12:27.260Z,22.41
2019-05-17T17:22:31.094Z,22.36
2019-05-17T17:32:34.955Z,22.34
2019-05-17T17:42:38.762Z,22.28
2019-05-17T17:52:42.655Z,22.28
2019-05-17T18:02:46.238Z,22.28
2019-05-17T18:12:49.849Z,22.55
2019-05-17T18:22:53.490Z,24.56
2019-05-17T18:32:57.093Z,25.74
2019-05-17T18:43:00.675Z,24.90
2019-05-17T18:53:06.337Z,24.45
2019-05-17T19:03:10.886Z,24.01
2019-05-17T19:13:14.453Z,24.63
2019-05-17T19:23:18.019Z,24.83
2019-05-17T19:33:21.848Z,24.47
2019-05-17T19:43:25.405Z,23.97
2019-05-17T19:53:29.366Z,23.55
2019-05-17T20:03:32.928Z,22.98
2019-05-17T20:13:36.530Z,22.65
2019-05-17T20:23:43.538Z,22.44
2019-05-17T20:33:45.700Z,22.28
2019-05-17T20:43:49.238Z,22.13
2019-05-17T20:53:52.999Z,22.02
2019-05-17T21:03:56.551Z,21.90
2019-05-17T21:14:00.843Z,21.81
2019-05-17T21:24:05.148Z,21.73
2019-05-17T21:34:08.977Z,21.60
2019-05-17T21:44:12.573Z,22.33
2019-05-17T21:54:16.331Z,24.89
2019-05-17T22:04:19.937Z,26.32
2019-05-17T22:14:23.587Z,25.66
2019-05-17T22:24:27.265Z,25.00
2019-05-17T22:34:30.874Z,24.76
2019-05-17T22:44:34.544Z,24.31
2019-05-17T22:54:38.198Z,23.54
2019-05-17T23:04:41.793Z,22.54
2019-05-17T23:14:45.330Z,22.09
2019-05-17T23:24:48.905Z,21.77
2019-05-17T23:34:52.495Z,21.64
2019-05-17T23:44:56.062Z,21.54
2019-05-17T23:54:59.627Z,21.41
